sensor_id;sensor_type;location;lat;lon;timestamp;pressure;altitude;pressure_sealevel;temperature;humidity
13033;BME280;6583;42.632;23.298;2022-11-14T00:00:42;93496.66;;;7.07;91.56
13033;BME280;6583;42.632;23.298;2022-11-14T00:03:10;93499.31;;;7.07;92.59
13033;BME280;6583;42.632;23.298;2022-11-14T00:05:38;93498.34;;;7.13;93.57
13033;BME280;6583;42.632;23.298;2022-11-14T00:08:06;93497.59;;;7.18;94.35
13033;BME280;6583;42.632;23.298;2022-11-14T00:10:34;93495.03;;;7.23;94.32
13033;BME280;6583;42.632;23.298;2022-11-14T00:13:01;93503.13;;;7.16;89.26
13033;BME280;6583;42.632;23.298;2022-11-14T00:15:27;93498.50;;;7.06;90.05
13033;BME280;6583;42.632;23.298;2022-11-14T00:17:54;93503.47;;;7.03;92.18
13033;BME280;6583;42.632;23.298;2022-11-14T00:20:21;93494.28;;;7.05;94.10
13033;BME280;6583;42.632;23.298;2022-11-14T00:22:47;93493.00;;;7.08;94.17
13033;BME280;6583;42.632;23.298;2022-11-14T00:25:14;93493.31;;;7.11;90.27
13033;BME280;6583;42.632;23.298;2022-11-14T00:27:42;93496.66;;;7.07;91.53
13033;BME280;6583;42.632;23.298;2022-11-14T00:30:09;93494.56;;;7.09;93.35
13033;BME280;6583;42.632;23.298;2022-11-14T00:32:36;93504.34;;;7.08;90.11
13033;BME280;6583;42.632;23.298;2022-11-14T00:35:03;93493.41;;;7.00;91.09
13033;BME280;6583;42.632;23.298;2022-11-14T00:37:30;93492.84;;;6.97;92.94
13033;BME280;6583;42.632;23.298;2022-11-14T00:39:57;93491.88;;;7.04;94.34
13033;BME280;6583;42.632;23.298;2022-11-14T00:42:24;93488.75;;;7.07;90.90
13033;BME280;6583;42.632;23.298;2022-11-14T00:44:52;93496.13;;;7.05;89.99
13033;BME280;6583;42.632;23.298;2022-11-14T00:47:19;93502.78;;;6.90;89.74
13033;BME280;6583;42.632;23.298;2022-11-14T00:49:46;93494.13;;;6.78;90.79
13033;BME280;6583;42.632;23.298;2022-11-14T00:52:12;93491.50;;;6.78;91.76
13033;BME280;6583;42.632;23.298;2022-11-14T00:54:39;93491.75;;;6.76;92.41
13033;BME280;6583;42.632;23.298;2022-11-14T00:57:05;93488.63;;;6.80;93.41
13033;BME280;6583;42.632;23.298;2022-11-14T00:59:32;93485.34;;;6.89;94.35
13033;BME280;6583;42.632;23.298;2022-11-14T01:02:00;93486.44;;;6.93;94.40
13033;BME280;6583;42.632;23.298;2022-11-14T01:04:27;93479.91;;;6.96;91.67
13033;BME280;6583;42.632;23.298;2022-11-14T01:06:53;93483.09;;;6.98;90.52
13033;BME280;6583;42.632;23.298;2022-11-14T01:09:20;93479.91;;;6.96;90.99
13033;BME280;6583;42.632;23.298;2022-11-14T01:11:47;93479.72;;;7.03;92.49
13033;BME280;6583;42.632;23.298;2022-11-14T01:14:13;93481.06;;;7.05;92.63
13033;BME280;6583;42.632;23.298;2022-11-14T01:16:40;93476.66;;;7.11;93.05
13033;BME280;6583;42.632;23.298;2022-11-14T01:19:08;93487.84;;;7.18;93.07
13033;BME280;6583;42.632;23.298;2022-11-14T01:21:35;93476.78;;;7.21;92.60
13033;BME280;6583;42.632;23.298;2022-11-14T01:24:01;93471.03;;;7.24;92.25
13033;BME280;6583;42.632;23.298;2022-11-14T01:26:28;93480.31;;;7.27;91.84
13033;BME280;6583;42.632;23.298;2022-11-14T01:28:55;93482.38;;;7.25;87.49
13033;BME280;6583;42.632;23.298;2022-11-14T01:31:23;93468.72;;;6.89;87.87
13033;BME280;6583;42.632;23.298;2022-11-14T01:33:51;93463.69;;;6.70;90.24
13033;BME280;6583;42.632;23.298;2022-11-14T01:36:20;93460.19;;;6.65;91.40
13033;BME280;6583;42.632;23.298;2022-11-14T01:38:51;93458.03;;;6.62;91.62
13033;BME280;6583;42.632;23.298;2022-11-14T01:41:18;93461.38;;;6.57;91.01
13033;BME280;6583;42.632;23.298;2022-11-14T01:43:45;93469.69;;;6.49;92.37
13033;BME280;6583;42.632;23.298;2022-11-14T01:46:13;93464.19;;;6.50;94.12
13033;BME280;6583;42.632;23.298;2022-11-14T01:48:44;93456.59;;;6.54;94.13
13033;BME280;6583;42.632;23.298;2022-11-14T01:51:18;93445.56;;;6.57;93.45
13033;BME280;6583;42.632;23.298;2022-11-14T01:53:50;93446.13;;;6.59;92.79
13033;BME280;6583;42.632;23.298;2022-11-14T01:56:20;93444.78;;;6.56;92.92
13033;BME280;6583;42.632;23.298;2022-11-14T01:58:51;93443.69;;;6.52;92.68
13033;BME280;6583;42.632;23.298;2022-11-14T02:01:19;93446.22;;;6.47;92.60
13033;BME280;6583;42.632;23.298;2022-11-14T02:03:49;93444.78;;;6.39;93.59
13033;BME280;6583;42.632;23.298;2022-11-14T02:06:20;93441.03;;;6.35;94.56
13033;BME280;6583;42.632;23.298;2022-11-14T02:08:50;93439.50;;;6.39;94.50
13033;BME280;6583;42.632;23.298;2022-11-14T02:11:17;93433.75;;;6.43;94.50
13033;BME280;6583;42.632;23.298;2022-11-14T02:13:44;93429.81;;;6.45;95.03
13033;BME280;6583;42.632;23.298;2022-11-14T02:16:11;93428.88;;;6.51;94.24
13033;BME280;6583;42.632;23.298;2022-11-14T02:18:37;93417.78;;;6.49;92.85
13033;BME280;6583;42.632;23.298;2022-11-14T02:21:05;93422.75;;;6.46;93.26
13033;BME280;6583;42.632;23.298;2022-11-14T02:23:32;93422.09;;;6.38;93.79
13033;BME280;6583;42.632;23.298;2022-11-14T02:25:59;93421.28;;;6.38;94.30
13033;BME280;6583;42.632;23.298;2022-11-14T02:28:26;93422.28;;;6.32;94.51
13033;BME280;6583;42.632;23.298;2022-11-14T02:30:53;93429.59;;;6.30;96.25
13033;BME280;6583;42.632;23.298;2022-11-14T02:33:20;93427.03;;;6.35;97.44
13033;BME280;6583;42.632;23.298;2022-11-14T02:35:47;93419.22;;;6.40;96.75
13033;BME280;6583;42.632;23.298;2022-11-14T02:38:15;93419.34;;;6.50;97.07
13033;BME280;6583;42.632;23.298;2022-11-14T02:40:42;93423.38;;;6.53;96.43
13033;BME280;6583;42.632;23.298;2022-11-14T02:43:09;93419.50;;;6.61;96.14
13033;BME280;6583;42.632;23.298;2022-11-14T02:45:35;93420.13;;;6.68;95.14
13033;BME280;6583;42.632;23.298;2022-11-14T02:48:03;93420.47;;;6.71;91.26
13033;BME280;6583;42.632;23.298;2022-11-14T02:50:29;93421.97;;;6.67;92.12
13033;BME280;6583;42.632;23.298;2022-11-14T02:52:56;93415.97;;;6.72;90.72
13033;BME280;6583;42.632;23.298;2022-11-14T02:55:24;93412.22;;;6.68;90.27
13033;BME280;6583;42.632;23.298;2022-11-14T02:57:51;93420.94;;;6.68;90.44
13033;BME280;6583;42.632;23.298;2022-11-14T03:00:18;93419.59;;;6.66;90.80
13033;BME280;6583;42.632;23.298;2022-11-14T03:02:45;93419.03;;;6.64;90.52
13033;BME280;6583;42.632;23.298;2022-11-14T03:05:11;93408.41;;;6.58;90.36
13033;BME280;6583;42.632;23.298;2022-11-14T03:07:38;93411.94;;;6.47;90.85
13033;BME280;6583;42.632;23.298;2022-11-14T03:10:06;93408.19;;;6.43;92.10
13033;BME280;6583;42.632;23.298;2022-11-14T03:12:35;93418.41;;;6.39;92.41
13033;BME280;6583;42.632;23.298;2022-11-14T03:15:03;93416.00;;;6.38;92.91
13033;BME280;6583;42.632;23.298;2022-11-14T03:17:31;93410.66;;;6.33;92.13
13033;BME280;6583;42.632;23.298;2022-11-14T03:19:58;93412.19;;;6.29;92.99
13033;BME280;6583;42.632;23.298;2022-11-14T03:22:25;93406.94;;;6.29;93.88
13033;BME280;6583;42.632;23.298;2022-11-14T03:24:52;93401.03;;;6.38;95.95
13033;BME280;6583;42.632;23.298;2022-11-14T03:27:18;93399.78;;;6.46;96.41
13033;BME280;6583;42.632;23.298;2022-11-14T03:29:47;93412.50;;;6.49;93.24
13033;BME280;6583;42.632;23.298;2022-11-14T03:32:13;93413.84;;;6.52;93.97
13033;BME280;6583;42.632;23.298;2022-11-14T03:34:40;93406.25;;;6.55;94.39
13033;BME280;6583;42.632;23.298;2022-11-14T03:37:07;93395.84;;;6.66;94.61
13033;BME280;6583;42.632;23.298;2022-11-14T03:39:34;93406.47;;;6.71;91.99
13033;BME280;6583;42.632;23.298;2022-11-14T03:42:01;93408.00;;;6.67;91.27
13033;BME280;6583;42.632;23.298;2022-11-14T03:44:27;93401.13;;;6.66;92.10
13033;BME280;6583;42.632;23.298;2022-11-14T03:46:55;93406.16;;;6.67;91.58
13033;BME280;6583;42.632;23.298;2022-11-14T03:49:22;93395.66;;;6.72;92.40
13033;BME280;6583;42.632;23.298;2022-11-14T03:51:49;93405.69;;;6.70;89.85
13033;BME280;6583;42.632;23.298;2022-11-14T03:54:16;93398.00;;;6.69;91.89
13033;BME280;6583;42.632;23.298;2022-11-14T03:56:42;93398.56;;;6.71;92.98
13033;BME280;6583;42.632;23.298;2022-11-14T03:59:09;93397.81;;;6.75;92.95
13033;BME280;6583;42.632;23.298;2022-11-14T04:01:35;93399.69;;;6.75;90.20
13033;BME280;6583;42.632;23.298;2022-11-14T04:04:03;93401.75;;;6.73;88.77
13033;BME280;6583;42.632;23.298;2022-11-14T04:06:30;93406.63;;;6.64;89.42
13033;BME280;6583;42.632;23.298;2022-11-14T04:08:57;93404.22;;;6.63;89.94
13033;BME280;6583;42.632;23.298;2022-11-14T04:11:24;93398.47;;;6.66;90.58
13033;BME280;6583;42.632;23.298;2022-11-14T04:13:50;93398.72;;;6.64;91.31
13033;BME280;6583;42.632;23.298;2022-11-14T04:16:17;93389.06;;;6.70;91.67
13033;BME280;6583;42.632;23.298;2022-11-14T04:18:44;93393.59;;;6.74;91.63
13033;BME280;6583;42.632;23.298;2022-11-14T04:21:12;93404.66;;;6.71;89.11
13033;BME280;6583;42.632;23.298;2022-11-14T04:23:38;93404.31;;;6.68;89.32
13033;BME280;6583;42.632;23.298;2022-11-14T04:26:05;93397.44;;;6.67;90.44
13033;BME280;6583;42.632;23.298;2022-11-14T04:28:32;93391.69;;;6.70;91.10
13033;BME280;6583;42.632;23.298;2022-11-14T04:30:58;93389.28;;;6.68;89.78
13033;BME280;6583;42.632;23.298;2022-11-14T04:33:25;93393.22;;;6.66;89.43
13033;BME280;6583;42.632;23.298;2022-11-14T04:35:52;93389.78;;;6.65;88.84
13033;BME280;6583;42.632;23.298;2022-11-14T04:38:20;93394.75;;;6.62;88.46
13033;BME280;6583;42.632;23.298;2022-11-14T04:40:47;93394.59;;;6.51;88.90
13033;BME280;6583;42.632;23.298;2022-11-14T04:43:15;93392.84;;;6.40;89.84
13033;BME280;6583;42.632;23.298;2022-11-14T04:45:41;93392.69;;;6.30;90.29
13033;BME280;6583;42.632;23.298;2022-11-14T04:48:08;93386.72;;;6.17;91.24
13033;BME280;6583;42.632;23.298;2022-11-14T04:50:35;93390.31;;;6.11;92.66
13033;BME280;6583;42.632;23.298;2022-11-14T04:53:01;93387.69;;;6.11;93.73
13033;BME280;6583;42.632;23.298;2022-11-14T04:55:29;93381.34;;;6.12;94.60
13033;BME280;6583;42.632;23.298;2022-11-14T04:57:57;93391.75;;;6.19;95.38
13033;BME280;6583;42.632;23.298;2022-11-14T05:00:26;93383.91;;;6.24;94.79
13033;BME280;6583;42.632;23.298;2022-11-14T05:02:52;93375.78;;;6.26;94.02
13033;BME280;6583;42.632;23.298;2022-11-14T05:05:19;93380.09;;;6.32;94.67
13033;BME280;6583;42.632;23.298;2022-11-14T05:07:46;93378.63;;;6.41;95.00
13033;BME280;6583;42.632;23.298;2022-11-14T05:10:13;93373.97;;;6.48;94.74
13033;BME280;6583;42.632;23.298;2022-11-14T05:12:41;93375.09;;;6.52;92.64
13033;BME280;6583;42.632;23.298;2022-11-14T05:15:08;93379.25;;;6.48;89.96
13033;BME280;6583;42.632;23.298;2022-11-14T05:17:35;93395.41;;;6.35;90.54
13033;BME280;6583;42.632;23.298;2022-11-14T05:20:02;93388.88;;;6.20;91.74
13033;BME280;6583;42.632;23.298;2022-11-14T05:22:29;93381.88;;;6.09;92.83
13033;BME280;6583;42.632;23.298;2022-11-14T05:24:55;93395.59;;;6.11;94.00
13033;BME280;6583;42.632;23.298;2022-11-14T05:27:22;93396.38;;;6.12;94.71
13033;BME280;6583;42.632;23.298;2022-11-14T05:29:50;93387.75;;;6.16;96.03
13033;BME280;6583;42.632;23.298;2022-11-14T05:32:17;93390.47;;;6.21;96.48
13033;BME280;6583;42.632;23.298;2022-11-14T05:34:43;93393.75;;;6.29;96.03
13033;BME280;6583;42.632;23.298;2022-11-14T05:37:10;93397.56;;;6.38;95.21
13033;BME280;6583;42.632;23.298;2022-11-14T05:39:36;93393.97;;;6.44;94.20
13033;BME280;6583;42.632;23.298;2022-11-14T05:42:03;93387.63;;;6.45;93.33
13033;BME280;6583;42.632;23.298;2022-11-14T05:44:30;93387.41;;;6.47;92.49
13033;BME280;6583;42.632;23.298;2022-11-14T05:46:58;93383.03;;;6.52;92.37
13033;BME280;6583;42.632;23.298;2022-11-14T05:49:25;93387.78;;;6.55;91.94
13033;BME280;6583;42.632;23.298;2022-11-14T05:51:51;93392.03;;;6.56;91.70
13033;BME280;6583;42.632;23.298;2022-11-14T05:54:18;93393.66;;;6.57;91.20
13033;BME280;6583;42.632;23.298;2022-11-14T05:56:45;93397.63;;;6.60;90.67
13033;BME280;6583;42.632;23.298;2022-11-14T05:59:11;93403.19;;;6.64;91.14
13033;BME280;6583;42.632;23.298;2022-11-14T06:01:38;93403.69;;;6.61;91.07
13033;BME280;6583;42.632;23.298;2022-11-14T06:04:06;93400.72;;;6.57;90.68
13033;BME280;6583;42.632;23.298;2022-11-14T06:06:33;93401.56;;;6.57;90.26
13033;BME280;6583;42.632;23.298;2022-11-14T06:08:59;93403.91;;;6.59;88.91
13033;BME280;6583;42.632;23.298;2022-11-14T06:11:26;93404.66;;;6.54;89.57
13033;BME280;6583;42.632;23.298;2022-11-14T06:13:53;93408.34;;;6.53;91.05
13033;BME280;6583;42.632;23.298;2022-11-14T06:16:19;93412.03;;;6.52;91.02
13033;BME280;6583;42.632;23.298;2022-11-14T06:18:46;93422.31;;;6.54;90.83
13033;BME280;6583;42.632;23.298;2022-11-14T06:21:16;93420.00;;;6.57;90.84
13033;BME280;6583;42.632;23.298;2022-11-14T06:23:44;93420.81;;;6.58;89.51
13033;BME280;6583;42.632;23.298;2022-11-14T06:26:16;93418.88;;;6.53;90.19
13033;BME280;6583;42.632;23.298;2022-11-14T06:28:45;93410.72;;;6.55;91.20
13033;BME280;6583;42.632;23.298;2022-11-14T06:31:12;93411.53;;;6.55;91.19
13033;BME280;6583;42.632;23.298;2022-11-14T06:33:38;93411.28;;;6.57;91.79
13033;BME280;6583;42.632;23.298;2022-11-14T06:36:07;93413.19;;;6.62;91.79
13033;BME280;6583;42.632;23.298;2022-11-14T06:38:36;93413.28;;;6.67;91.28
13033;BME280;6583;42.632;23.298;2022-11-14T06:41:04;93417.25;;;6.69;91.35
13033;BME280;6583;42.632;23.298;2022-11-14T06:43:34;93416.47;;;6.69;91.17
13033;BME280;6583;42.632;23.298;2022-11-14T06:46:01;93418.06;;;6.70;90.79
13033;BME280;6583;42.632;23.298;2022-11-14T06:48:28;93403.34;;;6.74;91.16
13033;BME280;6583;42.632;23.298;2022-11-14T06:50:56;93407.31;;;6.76;92.18
13033;BME280;6583;42.632;23.298;2022-11-14T06:53:24;93395.50;;;6.79;92.72
13033;BME280;6583;42.632;23.298;2022-11-14T06:55:55;93398.44;;;6.83;93.67
13033;BME280;6583;42.632;23.298;2022-11-14T06:58:24;93397.66;;;6.82;94.76
13033;BME280;6583;42.632;23.298;2022-11-14T07:00:51;93387.66;;;6.84;93.99
13033;BME280;6583;42.632;23.298;2022-11-14T07:03:18;93392.13;;;6.84;94.86
13033;BME280;6583;42.632;23.298;2022-11-14T07:05:45;93390.06;;;6.86;94.72
13033;BME280;6583;42.632;23.298;2022-11-14T07:08:11;93395.31;;;6.86;93.72
13033;BME280;6583;42.632;23.298;2022-11-14T07:10:38;93399.16;;;6.78;92.93
13033;BME280;6583;42.632;23.298;2022-11-14T07:13:06;93390.56;;;6.66;92.49
13033;BME280;6583;42.632;23.298;2022-11-14T07:15:33;93397.84;;;6.58;93.96
13033;BME280;6583;42.632;23.298;2022-11-14T07:18:00;93405.22;;;6.56;95.59
13033;BME280;6583;42.632;23.298;2022-11-14T07:20:27;93404.50;;;6.61;95.70
13033;BME280;6583;42.632;23.298;2022-11-14T07:22:53;93397.38;;;6.62;96.30
13033;BME280;6583;42.632;23.298;2022-11-14T07:25:20;93390.88;;;6.69;96.65
13033;BME280;6583;42.632;23.298;2022-11-14T07:27:48;93395.97;;;6.76;96.50
13033;BME280;6583;42.632;23.298;2022-11-14T07:30:16;93395.56;;;6.84;96.10
13033;BME280;6583;42.632;23.298;2022-11-14T07:32:42;93398.75;;;6.86;96.48
13033;BME280;6583;42.632;23.298;2022-11-14T07:35:09;93398.28;;;6.89;96.51
13033;BME280;6583;42.632;23.298;2022-11-14T07:37:36;93391.69;;;6.92;95.73
13033;BME280;6583;42.632;23.298;2022-11-14T07:40:03;93388.81;;;6.93;94.67
13033;BME280;6583;42.632;23.298;2022-11-14T07:42:29;93385.38;;;6.93;94.81
13033;BME280;6583;42.632;23.298;2022-11-14T07:44:56;93388.25;;;6.91;95.76
13033;BME280;6583;42.632;23.298;2022-11-14T07:47:25;93383.06;;;6.96;96.50
13033;BME280;6583;42.632;23.298;2022-11-14T07:49:52;93385.16;;;6.94;96.41
13033;BME280;6583;42.632;23.298;2022-11-14T07:52:18;93377.22;;;6.94;97.08
13033;BME280;6583;42.632;23.298;2022-11-14T07:54:45;93383.13;;;7.02;97.31
13033;BME280;6583;42.632;23.298;2022-11-14T07:57:12;93374.16;;;7.03;97.90
13033;BME280;6583;42.632;23.298;2022-11-14T07:59:38;93374.22;;;7.08;97.94
13033;BME280;6583;42.632;23.298;2022-11-14T08:02:05;93384.50;;;7.09;96.39
13033;BME280;6583;42.632;23.298;2022-11-14T08:04:33;93385.75;;;7.02;96.25
13033;BME280;6583;42.632;23.298;2022-11-14T08:07:00;93389.25;;;6.85;96.92
13033;BME280;6583;42.632;23.298;2022-11-14T08:09:26;93382.38;;;6.84;96.58
13033;BME280;6583;42.632;23.298;2022-11-14T08:11:53;93383.03;;;6.74;98.16
13033;BME280;6583;42.632;23.298;2022-11-14T08:14:19;93375.88;;;6.70;98.71
13033;BME280;6583;42.632;23.298;2022-11-14T08:16:46;93385.00;;;6.45;98.67
13033;BME280;6583;42.632;23.298;2022-11-14T08:19:13;93385.00;;;6.45;99.90
13033;BME280;6583;42.632;23.298;2022-11-14T08:21:42;93377.16;;;6.50;100.00
13033;BME280;6583;42.632;23.298;2022-11-14T08:24:09;93378.31;;;6.54;100.00
13033;BME280;6583;42.632;23.298;2022-11-14T08:26:35;93378.31;;;6.54;100.00
13033;BME280;6583;42.632;23.298;2022-11-14T08:29:05;93374.13;;;6.58;100.00
13033;BME280;6583;42.632;23.298;2022-11-14T08:31:31;93375.22;;;6.63;100.00
13033;BME280;6583;42.632;23.298;2022-11-14T08:33:58;93367.38;;;6.68;100.00
13033;BME280;6583;42.632;23.298;2022-11-14T08:36:25;93367.88;;;6.65;100.00
13033;BME280;6583;42.632;23.298;2022-11-14T08:38:53;93369.94;;;6.63;100.00
13033;BME280;6583;42.632;23.298;2022-11-14T08:41:19;93376.66;;;6.70;100.00
13033;BME280;6583;42.632;23.298;2022-11-14T08:43:46;93374.31;;;6.74;100.00
13033;BME280;6583;42.632;23.298;2022-11-14T08:46:13;93363.84;;;6.79;100.00
13033;BME280;6583;42.632;23.298;2022-11-14T08:48:39;93366.53;;;6.84;100.00
13033;BME280;6583;42.632;23.298;2022-11-14T08:51:06;93359.25;;;6.91;100.00
13033;BME280;6583;42.632;23.298;2022-11-14T08:53:33;93367.88;;;7.09;100.00
13033;BME280;6583;42.632;23.298;2022-11-14T08:56:02;93356.34;;;7.15;100.00
13033;BME280;6583;42.632;23.298;2022-11-14T08:58:29;93354.38;;;7.27;100.00
13033;BME280;6583;42.632;23.298;2022-11-14T09:00:59;93359.47;;;7.34;100.00
13033;BME280;6583;42.632;23.298;2022-11-14T09:03:26;93350.78;;;7.39;100.00
13033;BME280;6583;42.632;23.298;2022-11-14T09:05:53;93348.19;;;7.44;100.00
13033;BME280;6583;42.632;23.298;2022-11-14T09:08:20;93341.88;;;7.45;100.00
13033;BME280;6583;42.632;23.298;2022-11-14T09:10:47;93346.72;;;7.53;99.97
13033;BME280;6583;42.632;23.298;2022-11-14T09:13:15;93342.28;;;7.59;99.72
13033;BME280;6583;42.632;23.298;2022-11-14T09:15:42;93343.00;;;7.54;100.00
13033;BME280;6583;42.632;23.298;2022-11-14T09:18:09;93345.00;;;7.69;100.00
13033;BME280;6583;42.632;23.298;2022-11-14T09:20:37;93331.84;;;7.74;100.00
13033;BME280;6583;42.632;23.298;2022-11-14T09:23:04;93326.34;;;7.81;100.00
13033;BME280;6583;42.632;23.298;2022-11-14T09:25:30;93321.94;;;7.91;100.00
13033;BME280;6583;42.632;23.298;2022-11-14T09:27:57;93319.84;;;7.94;99.85
13033;BME280;6583;42.632;23.298;2022-11-14T09:30:25;93321.22;;;8.01;98.67
13033;BME280;6583;42.632;23.298;2022-11-14T09:32:52;93327.59;;;8.05;97.88
13033;BME280;6583;42.632;23.298;2022-11-14T09:35:18;93329.19;;;8.06;97.41
13033;BME280;6583;42.632;23.298;2022-11-14T09:37:45;93331.19;;;7.94;96.84
13033;BME280;6583;42.632;23.298;2022-11-14T09:40:12;93325.63;;;7.90;97.58
13033;BME280;6583;42.632;23.298;2022-11-14T09:42:53;93321.06;;;7.81;97.58
13033;BME280;6583;42.632;23.298;2022-11-14T09:45:27;93313.56;;;7.67;98.45
13033;BME280;6583;42.632;23.298;2022-11-14T09:48:00;93319.28;;;7.59;99.21
13033;BME280;6583;42.632;23.298;2022-11-14T09:50:33;93316.66;;;7.59;100.00
13033;BME280;6583;42.632;23.298;2022-11-14T09:53:04;93320.41;;;7.63;100.00
13033;BME280;6583;42.632;23.298;2022-11-14T09:55:33;93313.56;;;7.67;100.00
13033;BME280;6583;42.632;23.298;2022-11-14T09:58:01;93310.41;;;7.70;100.00
13033;BME280;6583;42.632;23.298;2022-11-14T10:00:38;93309.63;;;7.70;99.02
13033;BME280;6583;42.632;23.298;2022-11-14T10:03:15;93306.16;;;7.69;99.51
13033;BME280;6583;42.632;23.298;2022-11-14T10:05:56;93304.59;;;7.68;100.00
13033;BME280;6583;42.632;23.298;2022-11-14T10:08:41;93299.06;;;7.70;100.00
13033;BME280;6583;42.632;23.298;2022-11-14T10:11:14;93290.84;;;7.71;100.00
13033;BME280;6583;42.632;23.298;2022-11-14T10:13:52;93286.94;;;7.74;100.00
13033;BME280;6583;42.632;23.298;2022-11-14T10:16:30;93283.53;;;7.79;100.00
13033;BME280;6583;42.632;23.298;2022-11-14T10:19:08;93283.09;;;7.92;99.81
13033;BME280;6583;42.632;23.298;2022-11-14T10:21:48;93280.28;;;8.04;98.91
13033;BME280;6583;42.632;23.298;2022-11-14T10:24:39;93273.72;;;8.12;97.68
13033;BME280;6583;42.632;23.298;2022-11-14T10:27:15;93278.75;;;8.18;97.94
13033;BME280;6583;42.632;23.298;2022-11-14T10:30:06;93273.22;;;8.20;98.26
13033;BME280;6583;42.632;23.298;2022-11-14T10:32:47;93273.47;;;8.18;98.66
13033;BME280;6583;42.632;23.298;2022-11-14T10:35:20;93277.25;;;8.27;98.24
13033;BME280;6583;42.632;23.298;2022-11-14T10:37:56;93266.69;;;8.27;96.82
13033;BME280;6583;42.632;23.298;2022-11-14T10:40:38;93271.19;;;8.37;96.73
13033;BME280;6583;42.632;23.298;2022-11-14T10:43:15;93269.63;;;8.36;96.84
13033;BME280;6583;42.632;23.298;2022-11-14T10:45:46;93260.09;;;8.35;97.30
13033;BME280;6583;42.632;23.298;2022-11-14T10:48:24;93260.59;;;8.32;97.89
13033;BME280;6583;42.632;23.298;2022-11-14T10:50:57;93251.38;;;8.35;98.13
13033;BME280;6583;42.632;23.298;2022-11-14T10:53:28;93254.81;;;8.40;98.46
13033;BME280;6583;42.632;23.298;2022-11-14T10:56:00;93255.13;;;8.44;98.75
13033;BME280;6583;42.632;23.298;2022-11-14T10:58:27;93245.63;;;8.43;98.08
13033;BME280;6583;42.632;23.298;2022-11-14T11:00:54;93254.91;;;8.51;96.94
13033;BME280;6583;42.632;23.298;2022-11-14T11:03:39;93245.41;;;8.55;96.33
13033;BME280;6583;42.632;23.298;2022-11-14T11:06:23;93248.06;;;8.65;96.09
13033;BME280;6583;42.632;23.298;2022-11-14T11:08:50;93232.75;;;8.67;95.66
13033;BME280;6583;42.632;23.298;2022-11-14T11:11:37;93237.50;;;8.70;96.08
13033;BME280;6583;42.632;23.298;2022-11-14T11:14:03;93243.91;;;8.74;95.35
13033;BME280;6583;42.632;23.298;2022-11-14T11:16:30;93234.38;;;8.78;94.92
13033;BME280;6583;42.632;23.298;2022-11-14T11:19:14;93233.34;;;8.84;95.63
13033;BME280;6583;42.632;23.298;2022-11-14T11:21:49;93237.03;;;8.83;94.46
13033;BME280;6583;42.632;23.298;2022-11-14T11:24:29;93233.63;;;8.93;93.76
13033;BME280;6583;42.632;23.298;2022-11-14T11:27:12;93233.38;;;9.00;96.04
13033;BME280;6583;42.632;23.298;2022-11-14T11:29:40;93220.41;;;9.03;95.60
13033;BME280;6583;42.632;23.298;2022-11-14T11:32:07;93229.41;;;9.08;95.89
13033;BME280;6583;42.632;23.298;2022-11-14T11:34:35;93228.63;;;9.12;93.49
13033;BME280;6583;42.632;23.298;2022-11-14T11:37:10;93235.00;;;9.16;92.95
13033;BME280;6583;42.632;23.298;2022-11-14T11:39:42;93231.81;;;9.19;93.39
13033;BME280;6583;42.632;23.298;2022-11-14T11:42:15;93227.06;;;9.21;92.72
13033;BME280;6583;42.632;23.298;2022-11-14T11:44:47;93224.16;;;9.28;91.55
13033;BME280;6583;42.632;23.298;2022-11-14T11:47:17;93226.53;;;9.35;90.77
13033;BME280;6583;42.632;23.298;2022-11-14T11:49:46;93224.69;;;9.40;90.69
13033;BME280;6583;42.632;23.298;2022-11-14T11:52:18;93218.59;;;9.40;91.67
13033;BME280;6583;42.632;23.298;2022-11-14T11:54:54;93220.72;;;9.38;89.75
13033;BME280;6583;42.632;23.298;2022-11-14T11:57:30;93210.13;;;9.38;90.61
13033;BME280;6583;42.632;23.298;2022-11-14T12:00:05;93209.59;;;9.41;91.65
13033;BME280;6583;42.632;23.298;2022-11-14T12:02:35;93212.50;;;9.39;91.64
13033;BME280;6583;42.632;23.298;2022-11-14T12:05:13;93201.09;;;9.39;92.07
13033;BME280;6583;42.632;23.298;2022-11-14T12:07:45;93199.53;;;9.48;91.46
13033;BME280;6583;42.632;23.298;2022-11-14T12:10:17;93210.13;;;9.53;92.02
13033;BME280;6583;42.632;23.298;2022-11-14T12:13:17;93193.44;;;9.58;90.35
13033;BME280;6583;42.632;23.298;2022-11-14T12:15:55;93194.19;;;9.69;91.09
13033;BME280;6583;42.632;23.298;2022-11-14T12:18:41;93195.53;;;9.71;90.99
13033;BME280;6583;42.632;23.298;2022-11-14T12:21:26;93204.53;;;9.75;89.83
13033;BME280;6583;42.632;23.298;2022-11-14T12:24:51;93199.75;;;9.83;90.90
13033;BME280;6583;42.632;23.298;2022-11-14T12:30:17;93196.06;;;9.84;89.26
13033;BME280;6583;42.632;23.298;2022-11-14T12:32:49;93189.44;;;9.86;89.39
13033;BME280;6583;42.632;23.298;2022-11-14T12:35:19;93190.22;;;9.87;88.10
13033;BME280;6583;42.632;23.298;2022-11-14T12:37:51;93186.22;;;9.89;88.34
13033;BME280;6583;42.632;23.298;2022-11-14T12:40:25;93178.25;;;9.94;91.15
13033;BME280;6583;42.632;23.298;2022-11-14T12:42:54;93179.84;;;10.01;91.71
13033;BME280;6583;42.632;23.298;2022-11-14T12:45:55;93185.41;;;10.04;91.17
13033;BME280;6583;42.632;23.298;2022-11-14T12:48:29;93184.38;;;10.00;91.85
13033;BME280;6583;42.632;23.298;2022-11-14T12:50:57;93188.06;;;9.99;92.87
13033;BME280;6583;42.632;23.298;2022-11-14T12:53:39;93184.09;;;9.96;93.35
13033;BME280;6583;42.632;23.298;2022-11-14T12:59:32;93169.28;;;9.80;94.22
13033;BME280;6583;42.632;23.298;2022-11-14T13:05:17;93174.09;;;9.68;95.43
13033;BME280;6583;42.632;23.298;2022-11-14T13:07:55;93168.25;;;9.66;95.72
13033;BME280;6583;42.632;23.298;2022-11-14T13:10:33;93174.88;;;9.63;95.05
13033;BME280;6583;42.632;23.298;2022-11-14T13:13:06;93162.69;;;9.67;92.37
13033;BME280;6583;42.632;23.298;2022-11-14T13:15:52;93167.72;;;9.64;93.14
13033;BME280;6583;42.632;23.298;2022-11-14T13:18:49;93157.94;;;9.59;92.56
13033;BME280;6583;42.632;23.298;2022-11-14T13:21:34;93166.16;;;9.57;93.21
13033;BME280;6583;42.632;23.298;2022-11-14T13:24:13;93159.78;;;9.53;93.43
13033;BME280;6583;42.632;23.298;2022-11-14T13:26:44;93165.63;;;9.50;94.04
13033;BME280;6583;42.632;23.298;2022-11-14T13:35:44;93157.69;;;9.45;93.45
13033;BME280;6583;42.632;23.298;2022-11-14T13:41:35;93156.59;;;9.31;94.74